createdAt,value
2023-05-20T00:00:53.544Z,3.03
2023-05-20T00:03:39.853Z,2.97
2023-05-20T00:06:26.114Z,2.70
2023-05-20T00:09:12.591Z,2.85
2023-05-20T00:11:58.972Z,3.25
2023-05-20T00:14:45.329Z,3.10
2023-05-20T00:17:32.021Z,3.10
2023-05-20T00:20:18.190Z,3.20
2023-05-20T00:23:04.312Z,3.13
2023-05-20T00:25:50.795Z,3.25
2023-05-20T00:28:36.993Z,2.67
2023-05-20T00:31:22.938Z,2.75
2023-05-20T00:34:09.969Z,3.40
2023-05-20T00:39:42.084Z,2.95
2023-05-20T00:42:29.227Z,3.17
2023-05-20T00:45:15.419Z,3.33
2023-05-20T00:48:04.119Z,3.33
2023-05-20T00:50:50.979Z,3.40
2023-05-20T00:53:37.236Z,2.88
2023-05-20T00:56:24.724Z,3.00
2023-05-20T00:59:11.391Z,3.10
2023-05-20T01:01:57.953Z,3.03
2023-05-20T01:04:47.189Z,3.47
2023-05-20T01:07:33.968Z,3.45
2023-05-20T01:10:20.134Z,3.30
2023-05-20T01:13:11.464Z,2.92
2023-05-20T01:15:58.575Z,3.03
2023-05-20T01:18:48.589Z,3.30
2023-05-20T01:21:36.466Z,3.40
2023-05-20T01:24:23.132Z,3.30
2023-05-20T01:27:13.612Z,3.00
2023-05-20T01:30:01.296Z,3.38
2023-05-20T01:32:55.003Z,3.13
2023-05-20T01:35:41.863Z,3.50
2023-05-20T01:38:29.274Z,3.47
2023-05-20T01:41:15.984Z,3.88
2023-05-20T01:44:03.304Z,3.30
2023-05-20T01:46:50.696Z,3.13
2023-05-20T01:49:37.064Z,3.05
2023-05-20T01:52:23.719Z,3.60
2023-05-20T01:55:10.073Z,3.30
2023-05-20T01:57:56.097Z,3.65
2023-05-20T02:00:42.280Z,3.50
2023-05-20T02:03:28.283Z,3.60
2023-05-20T02:06:14.242Z,3.63
2023-05-20T02:09:00.965Z,3.90
2023-05-20T02:11:47.132Z,4.18
2023-05-20T02:14:33.562Z,3.63
2023-05-20T02:17:19.568Z,3.60
2023-05-20T02:20:07.717Z,4.00
2023-05-20T02:22:54.581Z,3.90
2023-05-20T02:25:41.187Z,3.55
2023-05-20T02:28:29.901Z,3.60
2023-05-20T02:31:16.421Z,3.35
2023-05-20T02:34:02.244Z,3.53
2023-05-20T02:36:48.761Z,3.72
2023-05-20T02:39:35.017Z,3.50
2023-05-20T02:42:20.925Z,4.00
2023-05-20T02:45:08.530Z,3.83
2023-05-20T02:47:54.672Z,4.10
2023-05-20T02:50:41.275Z,4.07
2023-05-20T02:53:27.410Z,4.30
2023-05-20T02:56:13.300Z,4.15
2023-05-20T02:59:00.220Z,4.32
2023-05-20T03:01:46.838Z,4.07
2023-05-20T03:04:33.030Z,3.97
2023-05-20T03:07:21.552Z,3.95
2023-05-20T03:10:09.469Z,4.38
2023-05-20T03:12:58.761Z,3.95
2023-05-20T03:15:45.682Z,4.00
2023-05-20T03:18:32.108Z,4.30
2023-05-20T03:21:18.843Z,4.43
2023-05-20T03:24:05.209Z,4.68
2023-05-20T03:26:51.237Z,4.18
2023-05-20T03:29:37.782Z,4.28
2023-05-20T03:32:23.985Z,4.18
2023-05-20T03:37:57.206Z,4.63
2023-05-20T03:40:44.158Z,4.40
2023-05-20T03:43:30.697Z,4.15
2023-05-20T03:46:18.213Z,4.10
2023-05-20T03:49:04.603Z,4.32
2023-05-20T03:54:37.812Z,3.97
2023-05-20T03:57:26.210Z,4.30
2023-05-20T04:00:14.561Z,4.20
2023-05-20T04:03:04.383Z,4.25
2023-05-20T04:05:51.036Z,4.32
2023-05-20T04:08:40.412Z,4.53
2023-05-20T04:11:26.910Z,4.63
2023-05-20T04:14:12.938Z,4.70
2023-05-20T04:16:59.300Z,4.60
2023-05-20T04:19:46.201Z,5.25
2023-05-20T04:22:32.928Z,4.65
2023-05-20T04:25:19.166Z,4.50
2023-05-20T04:28:05.901Z,4.90
2023-05-20T04:31:00.304Z,4.68
2023-05-20T04:33:46.892Z,4.95
2023-05-20T04:36:34.652Z,5.43
2023-05-20T04:39:22.756Z,4.47
2023-05-20T04:42:11.787Z,5.20
2023-05-20T04:44:58.249Z,5.20
2023-05-20T04:47:46.041Z,5.30
2023-05-20T04:50:33.111Z,5.90
2023-05-20T04:53:19.406Z,6.45
2023-05-20T04:56:05.924Z,5.43
2023-05-20T04:58:52.742Z,5.93
2023-05-20T05:01:39.084Z,5.82
2023-05-20T05:04:25.578Z,5.95
2023-05-20T05:07:11.689Z,6.43
2023-05-20T05:09:57.588Z,6.03
2023-05-20T05:12:44.085Z,5.72
2023-05-20T05:15:30.389Z,6.25
2023-05-20T05:18:18.617Z,6.95
2023-05-20T05:21:06.325Z,7.00
2023-05-20T05:23:55.238Z,7.07
2023-05-20T05:26:43.168Z,7.60
2023-05-20T05:29:30.960Z,7.43
2023-05-20T05:32:17.275Z,7.10
2023-05-20T05:35:05.489Z,7.10
2023-05-20T05:37:53.292Z,7.90
2023-05-20T05:40:39.845Z,6.55
2023-05-20T05:43:26.627Z,6.32
2023-05-20T05:46:13.122Z,6.45
2023-05-20T05:48:59.043Z,6.07
2023-05-20T05:51:45.483Z,6.05
2023-05-20T05:54:31.602Z,6.85
2023-05-20T05:57:18.111Z,6.75
2023-05-20T06:00:04.781Z,7.25
2023-05-20T06:03:04.529Z,6.47
2023-05-20T06:05:54.474Z,6.65
2023-05-20T06:08:40.421Z,6.88
2023-05-20T06:11:28.007Z,6.82
2023-05-20T06:14:14.077Z,6.28
2023-05-20T06:17:00.385Z,6.68
2023-05-20T06:19:47.432Z,6.88
2023-05-20T06:22:33.635Z,6.38
2023-05-20T06:25:19.990Z,6.75
2023-05-20T06:30:54.684Z,6.50
2023-05-20T06:33:41.189Z,7.20
2023-05-20T06:36:33.069Z,6.75
2023-05-20T06:39:19.811Z,6.80
2023-05-20T06:42:05.788Z,6.85
2023-05-20T06:44:55.170Z,6.88
2023-05-20T06:47:54.522Z,6.72
2023-05-20T06:50:40.782Z,7.03
2023-05-20T06:53:26.850Z,7.20
2023-05-20T06:56:12.822Z,6.30
2023-05-20T06:58:58.799Z,7.18
2023-05-20T07:01:45.802Z,6.95
2023-05-20T07:04:32.237Z,7.25
2023-05-20T07:07:18.217Z,7.95
2023-05-20T07:10:06.610Z,7.15
2023-05-20T07:12:53.212Z,7.03
2023-05-20T07:15:39.630Z,7.18
2023-05-20T07:18:25.881Z,7.13
2023-05-20T07:21:14.083Z,7.82
2023-05-20T07:24:22.920Z,7.30
2023-05-20T07:27:09.463Z,6.30
2023-05-20T07:29:55.731Z,7.25
2023-05-20T07:32:42.323Z,6.72
2023-05-20T07:35:28.708Z,7.05
2023-05-20T07:38:15.695Z,6.88
2023-05-20T07:41:04.350Z,6.78
2023-05-20T07:43:51.587Z,6.82
2023-05-20T07:46:41.875Z,6.53
2023-05-20T07:49:29.435Z,6.18
2023-05-20T07:52:15.853Z,6.70
2023-05-20T07:55:02.528Z,6.05
2023-05-20T07:57:49.150Z,6.75
2023-05-20T08:00:35.848Z,6.20
2023-05-20T08:03:26.940Z,5.53
2023-05-20T08:06:28.766Z,5.68
2023-05-20T08:09:16.159Z,6.00
2023-05-20T08:12:07.806Z,5.70
2023-05-20T08:14:54.602Z,5.82
2023-05-20T08:17:41.129Z,5.60
2023-05-20T08:20:29.584Z,5.72
2023-05-20T08:23:16.789Z,5.47
2023-05-20T08:26:03.730Z,5.05
2023-05-20T08:28:52.365Z,5.00
2023-05-20T08:31:38.959Z,5.25
2023-05-20T08:34:25.750Z,5.25
2023-05-20T08:37:11.910Z,5.63
2023-05-20T08:39:58.317Z,4.85
2023-05-20T08:42:45.045Z,4.57
2023-05-20T08:45:34.578Z,5.18
2023-05-20T08:51:15.774Z,4.80
2023-05-20T08:54:02.531Z,4.85
2023-05-20T08:56:48.999Z,4.72
2023-05-20T08:59:36.193Z,4.55
2023-05-20T09:02:23.217Z,4.38
2023-05-20T09:05:11.845Z,4.70
2023-05-20T09:08:08.776Z,4.68
2023-05-20T09:10:55.123Z,5.00
2023-05-20T09:16:28.798Z,4.63
2023-05-20T09:22:03.837Z,4.10
2023-05-20T09:24:50.811Z,4.55
2023-05-20T09:27:37.195Z,4.57
2023-05-20T09:30:23.972Z,4.45
2023-05-20T09:36:04.979Z,4.75
2023-05-20T09:38:53.643Z,4.35
2023-05-20T09:42:04.026Z,4.00
2023-05-20T09:44:52.182Z,4.45
2023-05-20T09:47:40.953Z,4.20
2023-05-20T09:50:28.854Z,4.13
2023-05-20T09:53:15.913Z,3.63
2023-05-20T09:56:02.266Z,3.47
2023-05-20T09:58:50.094Z,3.50
2023-05-20T10:01:36.177Z,3.95
2023-05-20T10:04:25.404Z,3.90
2023-05-20T10:07:41.261Z,4.80
2023-05-20T10:10:52.973Z,3.95
2023-05-20T10:13:52.057Z,3.75
2023-05-20T10:16:48.178Z,3.80
2023-05-20T10:19:35.619Z,3.65
2023-05-20T10:22:29.685Z,3.70
2023-05-20T10:25:28.679Z,3.42
2023-05-20T10:28:14.951Z,4.45
2023-05-20T10:31:01.661Z,4.05
2023-05-20T10:33:48.434Z,3.60
2023-05-20T10:36:34.940Z,3.42
2023-05-20T10:39:30.339Z,4.10
2023-05-20T10:42:16.720Z,3.55
2023-05-20T10:45:03.933Z,3.70
2023-05-20T10:47:58.266Z,3.63
2023-05-20T10:50:45.647Z,4.05
2023-05-20T10:53:46.672Z,4.13
2023-05-20T10:56:33.096Z,4.22
2023-05-20T10:59:21.622Z,3.72
2023-05-20T11:02:11.580Z,3.40
2023-05-20T11:04:58.645Z,3.28
2023-05-20T11:07:44.840Z,3.63
2023-05-20T11:10:31.794Z,3.13
2023-05-20T11:13:18.379Z,3.50
2023-05-20T11:16:05.806Z,3.10
2023-05-20T11:18:52.315Z,2.50
2023-05-20T11:21:44.493Z,2.90
2023-05-20T11:24:30.784Z,3.03
2023-05-20T11:27:16.767Z,3.28
2023-05-20T11:30:04.073Z,3.10
2023-05-20T11:33:01.607Z,2.97
2023-05-20T11:35:53.006Z,3.10
2023-05-20T11:38:41.965Z,2.88
2023-05-20T11:41:28.782Z,3.22
2023-05-20T11:44:14.793Z,3.50
2023-05-20T11:47:01.904Z,3.50
2023-05-20T11:49:49.581Z,3.20
2023-05-20T11:52:35.575Z,3.45
2023-05-20T11:55:21.912Z,3.53
2023-05-20T11:58:07.794Z,3.28
2023-05-20T12:01:01.881Z,3.40
2023-05-20T12:03:54.262Z,4.05
2023-05-20T12:06:40.771Z,3.83
2023-05-20T12:09:27.248Z,5.82
2023-05-20T12:12:14.156Z,3.92
2023-05-20T12:15:00.392Z,4.40
2023-05-20T12:17:52.286Z,4.10
2023-05-20T12:20:39.598Z,4.40
2023-05-20T12:23:26.464Z,5.13
2023-05-20T12:26:13.088Z,3.80
2023-05-20T12:28:59.181Z,3.70
2023-05-20T12:34:32.090Z,3.70
2023-05-20T12:37:18.317Z,4.60
2023-05-20T12:40:08.377Z,4.57
2023-05-20T12:42:54.415Z,4.57
2023-05-20T12:45:40.511Z,4.55
2023-05-20T12:48:26.388Z,4.80
2023-05-20T12:51:12.656Z,4.95
2023-05-20T12:53:58.731Z,5.60
2023-05-20T12:56:47.499Z,5.35
2023-05-20T12:59:33.398Z,5.25
2023-05-20T13:02:19.729Z,5.32
2023-05-20T13:05:06.645Z,5.43
2023-05-20T13:07:52.839Z,4.55
2023-05-20T13:10:38.942Z,4.97
2023-05-20T13:13:24.789Z,4.85
2023-05-20T13:16:12.026Z,5.03
2023-05-20T13:18:58.231Z,4.53
2023-05-20T13:21:44.483Z,4.82
2023-05-20T13:24:30.930Z,5.03
2023-05-20T13:27:17.050Z,4.63
2023-05-20T13:30:04.150Z,4.82
2023-05-20T13:32:50.586Z,4.90
2023-05-20T13:35:37.119Z,5.45
2023-05-20T13:38:23.523Z,4.90
2023-05-20T13:41:09.507Z,5.25
2023-05-20T13:43:55.302Z,5.32
2023-05-20T13:46:41.369Z,4.97
2023-05-20T13:49:27.682Z,5.05
2023-05-20T13:52:13.893Z,5.57
2023-05-20T13:55:00.125Z,5.35
2023-05-20T13:57:46.603Z,5.47
2023-05-20T14:00:33.092Z,5.13
2023-05-20T14:03:19.983Z,5.10
2023-05-20T14:06:06.661Z,5.05
2023-05-20T14:08:54.754Z,5.40
2023-05-20T14:11:41.281Z,5.50
2023-05-20T14:14:27.673Z,5.53
2023-05-20T14:17:13.583Z,5.20
2023-05-20T14:20:00.637Z,5.28
2023-05-20T14:22:47.205Z,5.25
2023-05-20T14:25:33.080Z,5.60
2023-05-20T14:28:19.820Z,5.40
2023-05-20T14:31:08.951Z,6.35
2023-05-20T14:33:55.836Z,6.10
2023-05-20T14:36:41.903Z,5.10
2023-05-20T14:39:28.186Z,5.95
2023-05-20T14:42:14.296Z,5.60
2023-05-20T14:45:00.842Z,5.78
2023-05-20T14:47:47.056Z,5.97
2023-05-20T14:50:33.057Z,5.35
2023-05-20T14:53:19.702Z,6.03
2023-05-20T14:56:06.267Z,5.28
2023-05-20T14:58:54.008Z,5.88
2023-05-20T15:01:40.025Z,5.57
2023-05-20T15:04:27.187Z,5.47
2023-05-20T15:07:15.201Z,5.32
2023-05-20T15:10:01.158Z,6.10
2023-05-20T15:12:47.642Z,6.40
2023-05-20T15:15:34.272Z,5.43
2023-05-20T15:18:20.663Z,5.47
2023-05-20T15:21:06.836Z,5.53
2023-05-20T15:23:52.808Z,5.07
2023-05-20T15:26:40.551Z,5.43
2023-05-20T15:29:26.535Z,5.60
2023-05-20T15:32:12.405Z,5.57
2023-05-20T15:34:58.589Z,5.47
2023-05-20T15:37:44.554Z,5.75
2023-05-20T15:40:30.460Z,5.40
2023-05-20T15:43:17.560Z,5.25
2023-05-20T15:46:03.810Z,5.18
2023-05-20T15:48:51.401Z,5.78
2023-05-20T15:51:37.615Z,5.43
2023-05-20T15:54:23.380Z,5.28
2023-05-20T15:57:10.161Z,5.50
2023-05-20T15:59:57.292Z,5.55
2023-05-20T16:02:43.990Z,5.22
2023-05-20T16:05:30.580Z,5.05
2023-05-20T16:08:16.908Z,5.18
2023-05-20T16:11:03.381Z,5.22
2023-05-20T16:16:36.365Z,5.43
2023-05-20T16:19:23.165Z,5.35
2023-05-20T16:22:09.525Z,5.53
2023-05-20T16:24:56.054Z,5.47
2023-05-20T16:27:42.239Z,5.70
2023-05-20T16:30:28.203Z,5.32
2023-05-20T16:33:14.650Z,5.20
2023-05-20T16:36:01.318Z,6.10
2023-05-20T16:38:47.753Z,5.38
2023-05-20T16:41:34.454Z,5.78
2023-05-20T16:44:20.664Z,5.82
2023-05-20T16:47:07.702Z,5.57
2023-05-20T16:49:53.966Z,6.45
2023-05-20T16:52:39.923Z,5.50
2023-05-20T16:55:26.075Z,5.35
2023-05-20T16:58:12.233Z,6.22
2023-05-20T17:00:58.296Z,6.38
2023-05-20T17:03:44.813Z,5.78
2023-05-20T17:09:19.977Z,5.38
2023-05-20T17:12:06.643Z,5.82
2023-05-20T17:14:52.575Z,5.75
2023-05-20T17:17:39.068Z,5.72
2023-05-20T17:20:25.064Z,5.43
2023-05-20T17:23:11.034Z,5.82
2023-05-20T17:25:56.919Z,5.68
2023-05-20T17:28:43.043Z,5.57
2023-05-20T17:34:15.530Z,5.85
2023-05-20T17:37:01.863Z,5.65
2023-05-20T17:42:34.555Z,5.72
2023-05-20T17:45:20.986Z,5.80
2023-05-20T17:53:44.691Z,5.30
2023-05-20T17:56:30.629Z,6.05
2023-05-20T17:59:17.059Z,5.63
2023-05-20T18:04:49.516Z,5.97
2023-05-20T18:07:37.365Z,6.15
2023-05-20T18:10:23.427Z,6.45
2023-05-20T18:13:09.373Z,5.50
2023-05-20T18:15:55.346Z,6.95
2023-05-20T18:18:41.818Z,6.28
2023-05-20T18:21:27.698Z,6.32
2023-05-20T18:24:16.477Z,5.88
2023-05-20T18:27:02.643Z,5.80
2023-05-20T18:29:49.983Z,5.78
2023-05-20T18:32:36.361Z,6.50
2023-05-20T18:35:22.782Z,6.22
2023-05-20T18:38:08.778Z,6.00
2023-05-20T18:40:54.921Z,6.30
2023-05-20T18:43:41.224Z,6.47
2023-05-20T18:46:27.415Z,6.22
2023-05-20T18:49:13.719Z,5.75
2023-05-20T18:51:59.804Z,6.57
2023-05-20T18:54:46.083Z,5.75
2023-05-20T19:00:18.283Z,5.97
2023-05-20T19:05:50.943Z,6.43
2023-05-20T19:11:23.137Z,6.50
2023-05-20T19:14:09.056Z,6.53
2023-05-20T19:16:55.119Z,6.38
2023-05-20T19:19:41.898Z,5.93
2023-05-20T19:22:27.683Z,6.22
2023-05-20T19:25:13.537Z,6.40
2023-05-20T19:30:46.130Z,6.03
2023-05-20T19:33:32.265Z,6.32
2023-05-20T19:36:18.553Z,6.18
2023-05-20T19:39:04.897Z,6.45
2023-05-20T19:41:52.944Z,5.78
2023-05-20T19:44:39.306Z,7.22
2023-05-20T19:47:25.258Z,6.50
2023-05-20T19:50:11.781Z,6.50
2023-05-20T19:52:57.828Z,6.15
2023-05-20T19:55:43.801Z,6.72
2023-05-20T19:58:29.891Z,5.82
2023-05-20T20:01:17.054Z,6.53
2023-05-20T20:04:03.132Z,6.15
2023-05-20T20:06:49.592Z,6.00
2023-05-20T20:09:36.083Z,6.70
2023-05-20T20:12:22.620Z,6.70
2023-05-20T20:15:09.593Z,6.68
2023-05-20T20:17:55.912Z,6.60
2023-05-20T20:20:43.306Z,7.10
2023-05-20T20:23:29.807Z,6.82
2023-05-20T20:26:15.618Z,6.85
2023-05-20T20:29:02.044Z,6.22
2023-05-20T20:31:48.446Z,6.20
2023-05-20T20:37:23.005Z,6.43
2023-05-20T20:40:13.269Z,6.05
2023-05-20T20:43:00.876Z,6.78
2023-05-20T20:45:47.066Z,6.57
2023-05-20T20:48:34.531Z,6.00
2023-05-20T20:51:20.817Z,6.88
2023-05-20T20:54:07.947Z,7.07
2023-05-20T20:56:56.962Z,6.25
2023-05-20T20:59:47.543Z,6.47
2023-05-20T21:02:33.810Z,6.40
2023-05-20T21:05:21.457Z,6.80
2023-05-20T21:08:08.538Z,6.50
2023-05-20T21:10:59.053Z,6.88
2023-05-20T21:13:45.168Z,6.28
2023-05-20T21:16:31.702Z,6.78
2023-05-20T21:19:18.034Z,6.38
2023-05-20T21:24:50.167Z,6.10
2023-05-20T21:27:36.487Z,6.70
2023-05-20T21:30:24.075Z,6.47
2023-05-20T21:33:10.029Z,6.60
2023-05-20T21:38:42.621Z,6.72
2023-05-20T21:41:28.538Z,6.30
2023-05-20T21:44:14.558Z,6.80
2023-05-20T21:47:00.495Z,6.45
2023-05-20T21:49:47.992Z,6.47
2023-05-20T21:52:34.519Z,6.50
2023-05-20T21:55:23.500Z,6.35
2023-05-20T21:58:09.536Z,5.93
2023-05-20T22:00:55.476Z,6.38
2023-05-20T22:03:46.705Z,6.32
2023-05-20T22:06:36.208Z,6.28
2023-05-20T22:09:22.700Z,6.30
2023-05-20T22:12:11.097Z,6.75
2023-05-20T22:14:57.441Z,6.32
2023-05-20T22:17:44.766Z,5.57
2023-05-20T22:20:33.739Z,5.95
2023-05-20T22:23:19.760Z,5.72
2023-05-20T22:26:06.358Z,6.55
2023-05-20T22:28:52.924Z,5.68
2023-05-20T22:31:39.147Z,6.15
2023-05-20T22:34:25.664Z,6.43
2023-05-20T22:37:12.080Z,5.55
2023-05-20T22:39:58.298Z,6.18
2023-05-20T22:42:44.541Z,5.68
2023-05-20T22:45:30.620Z,6.00
2023-05-20T22:48:16.623Z,5.30
2023-05-20T22:51:03.825Z,5.78
2023-05-20T22:53:49.803Z,6.32
2023-05-20T22:56:35.958Z,5.57
2023-05-20T22:59:22.312Z,6.22
2023-05-20T23:04:54.782Z,5.60
2023-05-20T23:10:27.019Z,5.28
2023-05-20T23:13:13.041Z,5.70
2023-05-20T23:15:58.943Z,5.60
2023-05-20T23:18:45.012Z,5.63
2023-05-20T23:21:31.733Z,5.82
2023-05-20T23:24:18.023Z,4.97
2023-05-20T23:27:04.528Z,5.47
2023-05-20T23:29:50.336Z,5.13
2023-05-20T23:35:23.353Z,5.35
2023-05-20T23:38:09.118Z,5.55
2023-05-20T23:40:54.995Z,5.45
2023-05-20T23:43:40.993Z,5.43
2023-05-20T23:46:27.203Z,5.30
2023-05-20T23:49:13.114Z,5.47
2023-05-20T23:51:58.980Z,5.20
2023-05-20T23:54:45.070Z,5.40
2023-05-20T23:57:31.052Z,5.38
